Time;durP1;ratioP1;P1;durP2;ratioP2;P2;SDS_P1;SDS_P2;PMS_P1;PMS_P2;Temp;Humidity;BMP_temperature;BMP_pressure;BME280_temperature;BME280_humidity;BME280_pressure;Samples;Min_cycle;Max_cycle;Signal;HPM_P1;HPM_P2
2023/07/30 00:00:29;;;;;;;16.58;4.07;;;16.80;99.90;;;;;;4232554;28;20119;-81
2023/07/30 00:02:29;;;;;;;17.77;4.00;;;16.80;99.90;;;;;;4232412;28;20097;-80
2023/07/30 00:04:30;;;;;;;16.38;4.25;;;16.80;99.90;;;;;;4232428;28;20040;-81
2023/07/30 00:06:31;;;;;;;15.07;3.83;;;16.70;99.90;;;;;;4233014;28;20050;-81
2023/07/30 00:08:32;;;;;;;12.27;3.25;;;16.70;99.90;;;;;;4232871;28;20518;-81
2023/07/30 00:10:32;;;;;;;25.08;3.97;;;16.80;99.90;;;;;;4234838;28;20063;-80
2023/07/30 00:12:33;;;;;;;16.65;4.07;;;16.60;99.90;;;;;;4236271;28;20100;-80
2023/07/30 00:14:34;;;;;;;15.73;4.25;;;15.40;99.90;;;;;;4232548;28;20032;-80
2023/07/30 00:16:35;;;;;;;21.85;4.25;;;16.70;99.90;;;;;;4232327;28;20050;-81
2023/07/30 00:18:35;;;;;;;20.10;4.07;;;16.60;99.90;;;;;;4231821;28;20479;-81
2023/07/30 00:20:36;;;;;;;28.88;4.45;;;16.70;99.90;;;;;;4232510;28;20556;-81
2023/07/30 00:22:37;;;;;;;20.73;5.15;;;16.70;99.90;;;;;;4231945;28;20043;-80
2023/07/30 00:24:38;;;;;;;18.83;4.25;;;16.70;99.90;;;;;;4232340;28;20118;-81
2023/07/30 00:26:38;;;;;;;17.13;3.63;;;16.80;99.90;;;;;;4232105;28;20092;-80
2023/07/30 00:28:39;;;;;;;16.05;4.78;;;16.50;99.90;;;;;;4232217;28;20036;-81
2023/07/30 00:30:40;;;;;;;18.90;5.75;;;16.60;99.90;;;;;;4232556;28;20036;-81
2023/07/30 00:32:43;;;;;;;17.02;4.50;;;16.80;99.90;;;;;;4232539;28;20043;-81
2023/07/30 00:34:44;;;;;;;19.65;4.72;;;16.60;99.90;;;;;;4232838;28;20481;-81
2023/07/30 00:36:46;;;;;;;19.92;4.93;;;17.10;99.90;;;;;;4231867;28;20075;-80
2023/07/30 00:38:47;;;;;;;20.65;4.03;;;16.50;99.90;;;;;;4232080;28;20052;-80
2023/07/30 00:40:47;;;;;;;17.58;4.15;;;16.50;99.90;;;;;;4231820;28;20475;-80
2023/07/30 00:42:48;;;;;;;23.65;5.15;;;16.60;99.90;;;;;;4233507;28;20376;-81
2023/07/30 00:44:49;;;;;;;16.98;4.80;;;16.50;99.90;;;;;;4232047;28;20195;-80
2023/07/30 00:46:50;;;;;;;18.20;4.18;;;17.60;99.90;;;;;;4233105;28;20089;-80
2023/07/30 00:48:52;;;;;;;15.23;5.07;;;16.60;99.90;;;;;;4233891;28;20035;-81
2023/07/30 00:50:53;;;;;;;22.40;4.80;;;16.60;99.90;;;;;;4236307;28;20042;-80
2023/07/30 00:52:54;;;;;;;18.17;4.20;;;16.60;99.90;;;;;;4235604;28;20047;-81
2023/07/30 00:54:57;;;;;;;22.25;6.18;;;16.60;99.90;;;;;;4232033;28;20494;-81
2023/07/30 00:56:58;;;;;;;13.27;4.25;;;16.40;99.90;;;;;;4232859;28;20403;-80
2023/07/30 00:58:58;;;;;;;15.88;3.83;;;16.50;99.90;;;;;;4233115;28;20115;-81
2023/07/30 01:00:59;;;;;;;16.98;3.80;;;16.60;99.90;;;;;;4234051;28;20051;-81
2023/07/30 01:03:00;;;;;;;18.85;4.68;;;16.40;99.90;;;;;;4240179;28;20464;-80
2023/07/30 01:05:03;;;;;;;18.02;4.70;;;16.30;99.90;;;;;;4251507;28;20061;-80
2023/07/30 01:07:05;;;;;;;26.38;5.90;;;16.40;99.90;;;;;;4242775;28;20075;-80
2023/07/30 01:09:06;;;;;;;25.45;4.88;;;16.30;99.90;;;;;;4231568;28;20506;-80
2023/07/30 01:11:08;;;;;;;22.83;5.03;;;16.30;99.90;;;;;;4231689;28;20040;-81
2023/07/30 01:13:11;;;;;;;20.50;4.22;;;16.30;99.90;;;;;;4231277;28;20046;-80
2023/07/30 01:15:12;;;;;;;22.40;5.30;;;16.30;99.90;;;;;;4231072;28;20055;-81
2023/07/30 01:17:13;;;;;;;14.85;3.53;;;16.30;99.90;;;;;;4231541;28;20047;-81
2023/07/30 01:19:14;;;;;;;19.90;4.40;;;16.30;99.90;;;;;;4233616;28;20051;-80
2023/07/30 01:21:15;;;;;;;22.63;3.85;;;16.30;99.90;;;;;;4232977;28;20062;-80
2023/07/30 01:23:15;;;;;;;19.02;4.57;;;16.30;99.90;;;;;;4238927;28;20468;-80
2023/07/30 01:25:17;;;;;;;21.17;5.57;;;16.30;99.90;;;;;;4230006;28;20470;-81
2023/07/30 01:27:25;;;;;;;13.75;3.42;;;16.30;99.90;;;;;;4230080;28;20043;-80
2023/07/30 01:29:33;;;;;;;18.50;4.95;;;16.30;99.90;;;;;;4231355;28;20044;-81
2023/07/30 01:31:35;;;;;;;13.80;3.75;;;16.30;99.90;;;;;;4231686;28;20082;-81
2023/07/30 01:33:37;;;;;;;20.50;4.22;;;16.30;99.90;;;;;;4231244;28;20517;-81
2023/07/30 01:35:39;;;;;;;13.57;3.97;;;16.30;99.90;;;;;;4230028;28;20520;-81
2023/07/30 01:37:42;;;;;;;12.38;3.40;;;16.30;99.90;;;;;;4230092;28;20048;-81
2023/07/30 01:39:45;;;;;;;19.70;3.90;;;16.30;99.90;;;;;;4229843;28;20514;-80
2023/07/30 01:41:46;;;;;;;18.23;4.30;;;16.30;99.90;;;;;;4230081;28;20063;-80
2023/07/30 01:43:46;;;;;;;13.63;3.78;;;16.30;99.90;;;;;;4230104;28;20579;-81
2023/07/30 01:45:47;;;;;;;16.88;4.20;;;16.30;99.90;;;;;;4231091;28;20159;-80
2023/07/30 01:47:48;;;;;;;12.70;4.03;;;16.30;99.90;;;;;;4230277;28;20048;-80
2023/07/30 01:49:48;;;;;;;17.20;3.88;;;16.30;99.90;;;;;;4230448;28;20054;-81
2023/07/30 01:51:49;;;;;;;32.30;4.25;;;16.30;99.90;;;;;;4229522;28;20044;-81
2023/07/30 01:53:50;;;;;;;17.58;3.47;;;16.20;99.90;;;;;;4230713;28;20058;-81
2023/07/30 01:55:50;;;;;;;17.35;4.57;;;16.20;99.90;;;;;;4229717;28;20126;-81
2023/07/30 01:57:51;;;;;;;14.10;3.60;;;16.20;99.90;;;;;;4212878;28;20048;-81
2023/07/30 01:59:53;;;;;;;12.05;3.20;;;16.20;99.90;;;;;;4230061;28;20119;-80
2023/07/30 02:01:53;;;;;;;14.98;4.05;;;16.30;99.90;;;;;;4229325;28;20505;-80
2023/07/30 02:03:54;;;;;;;19.98;4.05;;;16.30;99.90;;;;;;4229104;28;20043;-81
2023/07/30 02:05:55;;;;;;;21.15;4.80;;;16.20;99.90;;;;;;4229461;28;20101;-81
2023/07/30 02:07:55;;;;;;;21.20;4.30;;;16.30;99.90;;;;;;4230261;28;20097;-80
2023/07/30 02:09:56;;;;;;;20.98;4.57;;;16.20;99.90;;;;;;4230400;28;20403;-81
2023/07/30 02:11:57;;;;;;;17.55;4.40;;;16.20;99.90;;;;;;4230796;28;20039;-80
2023/07/30 02:13:58;;;;;;;16.65;3.75;;;16.30;99.90;;;;;;4230195;28;20180;-81
2023/07/30 02:15:58;;;;;;;12.50;3.65;;;16.30;99.90;;;;;;4229594;28;20047;-81
2023/07/30 02:17:59;;;;;;;16.02;4.18;;;16.30;99.90;;;;;;4230965;28;20043;-81
2023/07/30 02:20:00;;;;;;;19.58;3.55;;;16.30;99.90;;;;;;4228588;28;20044;-81
2023/07/30 02:22:00;;;;;;;16.48;4.10;;;16.30;99.90;;;;;;4229784;28;20057;-81
2023/07/30 02:24:01;;;;;;;24.75;3.85;;;16.30;99.90;;;;;;4230432;28;20046;-81
2023/07/30 02:26:02;;;;;;;22.13;4.07;;;16.40;99.90;;;;;;4230356;28;20146;-80
2023/07/30 02:28:02;;;;;;;17.55;3.33;;;16.30;99.90;;;;;;4230522;28;20044;-81
2023/07/30 02:30:04;;;;;;;18.15;4.03;;;16.30;99.90;;;;;;4230184;28;20047;-81
2023/07/30 02:32:05;;;;;;;15.27;3.60;;;16.30;99.90;;;;;;4230356;28;20044;-80
2023/07/30 02:34:08;;;;;;;20.65;3.42;;;16.40;99.90;;;;;;4230352;28;20047;-81
2023/07/30 02:36:09;;;;;;;19.55;3.47;;;16.40;99.90;;;;;;4229707;28;20051;-81
2023/07/30 02:38:10;;;;;;;19.27;3.85;;;16.40;99.90;;;;;;4230812;28;20407;-80
2023/07/30 02:40:11;;;;;;;18.80;3.65;;;16.40;99.90;;;;;;4228749;28;20048;-81
2023/07/30 02:42:11;;;;;;;16.55;3.17;;;16.30;99.90;;;;;;4229328;28;20075;-81
2023/07/30 02:44:12;;;;;;;16.35;3.28;;;16.30;99.90;;;;;;4228339;28;20047;-81
2023/07/30 02:46:14;;;;;;;18.50;3.38;;;16.30;99.90;;;;;;4230249;28;20054;-81
2023/07/30 02:48:14;;;;;;;19.20;3.92;;;16.30;99.90;;;;;;4230436;28;20055;-80
2023/07/30 02:50:15;;;;;;;18.45;4.38;;;16.30;99.90;;;;;;4230868;28;20112;-81
2023/07/30 02:52:16;;;;;;;15.10;3.95;;;16.30;99.90;;;;;;4232739;28;20139;-81
2023/07/30 02:54:17;;;;;;;28.17;4.18;;;16.30;99.90;;;;;;4233225;28;20070;-81
2023/07/30 02:56:17;;;;;;;28.08;4.70;;;16.30;99.90;;;;;;4233777;28;20040;-81
2023/07/30 02:58:18;;;;;;;22.83;4.85;;;16.30;99.90;;;;;;4232383;28;20055;-80
2023/07/30 03:00:19;;;;;;;20.92;3.88;;;16.30;99.90;;;;;;4233547;28;20078;-80
2023/07/30 03:02:19;;;;;;;19.33;3.72;;;16.20;99.90;;;;;;4233842;28;20471;-80
2023/07/30 03:04:20;;;;;;;16.58;3.55;;;16.20;99.90;;;;;;4233569;27;20484;-81
2023/07/30 03:06:20;;;;;;;24.98;4.20;;;16.20;99.90;;;;;;4233863;28;20090;-81
2023/07/30 03:08:21;;;;;;;18.38;3.95;;;16.20;99.90;;;;;;4233254;28;20451;-81
2023/07/30 03:10:22;;;;;;;16.42;4.00;;;16.20;99.90;;;;;;4233432;28;20123;-81
2023/07/30 03:12:23;;;;;;;13.32;3.17;;;16.20;99.90;;;;;;4232698;28;20044;-81
2023/07/30 03:14:24;;;;;;;13.57;3.70;;;16.20;99.90;;;;;;4232284;28;20043;-81
2023/07/30 03:16:25;;;;;;;15.68;3.90;;;16.10;99.90;;;;;;4232273;28;20094;-80
2023/07/30 03:18:26;;;;;;;14.85;4.28;;;16.10;99.90;;;;;;4233017;28;20050;-81
2023/07/30 03:20:27;;;;;;;22.63;4.45;;;16.10;99.90;;;;;;4233002;28;20044;-81
2023/07/30 03:22:27;;;;;;;21.80;3.42;;;16.10;99.90;;;;;;4233174;28;20406;-80
2023/07/30 03:24:28;;;;;;;23.13;3.50;;;16.10;99.90;;;;;;4232885;28;20502;-81
2023/07/30 03:26:29;;;;;;;21.70;3.95;;;16.10;99.90;;;;;;4231362;28;20052;-80
2023/07/30 03:28:29;;;;;;;24.70;3.75;;;16.00;99.90;;;;;;4233308;28;20039;-80
2023/07/30 03:30:30;;;;;;;18.88;3.70;;;16.00;99.90;;;;;;4232864;28;20140;-81
2023/07/30 03:32:31;;;;;;;20.58;4.47;;;16.00;99.90;;;;;;4233427;28;20039;-81
2023/07/30 03:34:31;;;;;;;24.83;4.15;;;16.00;99.90;;;;;;4232895;28;20047;-81
2023/07/30 03:36:32;;;;;;;22.02;4.20;;;15.90;99.90;;;;;;4231712;28;20058;-81
2023/07/30 03:38:33;;;;;;;20.70;3.83;;;15.90;99.90;;;;;;4233144;28;20050;-81
2023/07/30 03:40:34;;;;;;;18.63;3.28;;;15.90;99.90;;;;;;4231939;28;20500;-81
2023/07/30 03:42:35;;;;;;;18.23;3.28;;;15.90;99.90;;;;;;4215096;28;20080;-81
2023/07/30 03:44:36;;;;;;;17.77;2.90;;;15.90;99.90;;;;;;4231516;28;20458;-80
2023/07/30 03:46:37;;;;;;;15.00;3.63;;;15.90;99.90;;;;;;4231277;28;20054;-81
2023/07/30 03:48:38;;;;;;;21.95;4.15;;;15.90;99.90;;;;;;4230700;28;20085;-81
2023/07/30 03:50:39;;;;;;;17.77;3.80;;;15.90;99.90;;;;;;4231266;28;20056;-81
2023/07/30 03:52:39;;;;;;;20.52;4.93;;;15.90;99.90;;;;;;4232657;28;20447;-80
2023/07/30 03:54:40;;;;;;;11.63;3.88;;;15.90;99.90;;;;;;4231306;28;20054;-81
2023/07/30 03:56:41;;;;;;;17.67;3.35;;;15.90;99.90;;;;;;4232637;28;20027;-81
2023/07/30 03:58:42;;;;;;;17.17;3.85;;;15.90;99.90;;;;;;4230958;28;20110;-81
2023/07/30 04:00:43;;;;;;;19.45;3.45;;;15.80;99.90;;;;;;4230754;28;20435;-80
2023/07/30 04:02:43;;;;;;;18.77;3.95;;;15.80;99.90;;;;;;4231495;28;20058;-81
2023/07/30 04:04:46;;;;;;;21.40;3.38;;;15.80;99.90;;;;;;4232438;28;20075;-81
2023/07/30 04:06:46;;;;;;;19.13;3.50;;;15.80;99.90;;;;;;4231466;28;20047;-81
2023/07/30 04:08:47;;;;;;;17.40;2.95;;;15.80;99.90;;;;;;4231136;28;20407;-81
2023/07/30 04:10:51;;;;;;;13.80;3.15;;;15.80;99.90;;;;;;4230714;28;20426;-80
2023/07/30 04:12:51;;;;;;;14.93;2.95;;;15.80;99.90;;;;;;4231504;28;20044;-81
2023/07/30 04:14:52;;;;;;;21.48;4.25;;;15.80;99.90;;;;;;4230991;28;20054;-81
2023/07/30 04:16:52;;;;;;;15.15;3.47;;;15.80;99.90;;;;;;4230867;28;20086;-81
2023/07/30 04:18:53;;;;;;;14.90;3.75;;;15.80;99.90;;;;;;4231834;28;20043;-81
2023/07/30 04:20:57;;;;;;;13.90;4.22;;;15.80;99.90;;;;;;4232454;28;20127;-81
2023/07/30 04:22:58;;;;;;;22.80;3.88;;;15.90;99.90;;;;;;4230375;28;20059;-80
2023/07/30 04:24:58;;;;;;;26.45;4.68;;;15.90;99.90;;;;;;4230893;28;20047;-81
2023/07/30 04:27:00;;;;;;;19.35;4.57;;;15.90;99.90;;;;;;4231205;28;20094;-80
2023/07/30 04:29:01;;;;;;;14.15;2.90;;;15.90;99.90;;;;;;4231966;28;20051;-81
2023/07/30 04:31:02;;;;;;;17.88;3.03;;;15.90;99.90;;;;;;4231039;28;20054;-81
2023/07/30 04:33:02;;;;;;;19.60;3.30;;;15.90;99.90;;;;;;4231994;28;20040;-81
2023/07/30 04:35:03;;;;;;;15.10;3.33;;;15.90;99.90;;;;;;4230718;28;20056;-81
2023/07/30 04:37:04;;;;;;;23.85;5.18;;;15.90;99.90;;;;;;4230475;28;20051;-81
2023/07/30 04:39:05;;;;;;;16.67;3.40;;;15.90;99.90;;;;;;4230251;28;20052;-81
2023/07/30 04:41:06;;;;;;;13.02;3.03;;;15.90;99.90;;;;;;4231991;28;20043;-80
2023/07/30 04:43:08;;;;;;;17.08;4.30;;;15.90;99.90;;;;;;4231790;28;20062;-80
2023/07/30 04:45:09;;;;;;;20.55;4.07;;;15.90;99.90;;;;;;4230252;28;20051;-81
2023/07/30 04:47:09;;;;;;;16.88;4.30;;;15.90;99.90;;;;;;4230664;28;20035;-81
2023/07/30 04:49:10;;;;;;;19.45;3.42;;;15.90;99.90;;;;;;4231177;28;20079;-80
2023/07/30 04:51:11;;;;;;;14.93;2.25;;;15.90;99.90;;;;;;4231717;28;20123;-81
2023/07/30 04:53:12;;;;;;;15.50;3.00;;;15.90;99.90;;;;;;4230919;28;20104;-81
2023/07/30 04:55:12;;;;;;;15.40;3.35;;;16.00;99.90;;;;;;4230447;28;20044;-81
2023/07/30 04:57:13;;;;;;;11.70;3.53;;;16.00;99.90;;;;;;4231733;28;20495;-81
2023/07/30 04:59:14;;;;;;;16.17;4.40;;;16.10;99.90;;;;;;4231289;28;20048;-80
2023/07/30 05:01:14;;;;;;;15.23;2.83;;;15.20;99.90;;;;;;4231690;28;20046;-81
2023/07/30 05:03:15;;;;;;;13.90;2.78;;;16.30;99.90;;;;;;4231099;28;20127;-81
2023/07/30 05:05:16;;;;;;;22.75;3.28;;;16.30;99.90;;;;;;4231175;28;20051;-80
2023/07/30 05:07:17;;;;;;;15.98;3.45;;;16.30;99.90;;;;;;4231786;28;20470;-81
2023/07/30 05:09:17;;;;;;;13.90;2.78;;;16.20;99.90;;;;;;4231749;28;20558;-81
2023/07/30 05:11:18;;;;;;;8.75;2.63;;;16.30;99.90;;;;;;4230219;28;20032;-81
2023/07/30 05:13:19;;;;;;;15.90;2.60;;;16.30;99.90;;;;;;4230403;28;20039;-81
2023/07/30 05:15:20;;;;;;;21.48;3.17;;;16.20;99.90;;;;;;4230071;28;20047;-81
2023/07/30 05:17:21;;;;;;;12.73;2.53;;;16.30;99.90;;;;;;4231678;28;20040;-81
2023/07/30 05:19:21;;;;;;;15.35;2.72;;;16.40;99.90;;;;;;4231272;28;20462;-81
2023/07/30 05:21:22;;;;;;;15.23;2.63;;;17.10;99.90;;;;;;4231394;28;20043;-81
2023/07/30 05:23:23;;;;;;;16.42;2.85;;;16.50;99.90;;;;;;4231296;28;20046;-80
2023/07/30 05:25:23;;;;;;;12.30;2.72;;;16.30;99.90;;;;;;4230593;27;20047;-81
2023/07/30 05:27:24;;;;;;;10.52;2.90;;;16.40;99.90;;;;;;4230109;28;20043;-80
2023/07/30 05:29:25;;;;;;;17.98;3.13;;;16.40;99.90;;;;;;4231154;28;20069;-80
2023/07/30 05:31:26;;;;;;;10.30;3.58;;;16.50;99.90;;;;;;4231395;28;20040;-80
2023/07/30 05:33:28;;;;;;;9.73;2.55;;;16.50;99.90;;;;;;4231343;28;20048;-81
2023/07/30 05:35:28;;;;;;;14.98;2.22;;;16.30;99.90;;;;;;4231113;28;20483;-80
2023/07/30 05:37:29;;;;;;;17.38;3.25;;;16.50;99.90;;;;;;4229657;28;20127;-80
2023/07/30 05:39:30;;;;;;;9.40;1.85;;;16.40;99.90;;;;;;4230765;28;20132;-81
2023/07/30 05:41:30;;;;;;;8.98;2.08;;;16.60;99.90;;;;;;4230096;28;20484;-81
2023/07/30 05:43:31;;;;;;;11.75;2.47;;;16.50;99.90;;;;;;4231111;28;20047;-81
2023/07/30 05:45:34;;;;;;;12.55;2.17;;;16.50;99.90;;;;;;4231059;28;20570;-81
2023/07/30 05:47:35;;;;;;;12.32;2.70;;;16.70;99.90;;;;;;4230836;28;20122;-80
2023/07/30 05:49:35;;;;;;;10.57;2.53;;;16.80;99.90;;;;;;4230928;28;20108;-81
2023/07/30 05:51:36;;;;;;;13.40;1.90;;;16.70;99.90;;;;;;4231091;28;20118;-80
2023/07/30 05:53:37;;;;;;;13.95;2.67;;;16.90;99.90;;;;;;4231242;28;20039;-80
2023/07/30 05:55:38;;;;;;;11.38;2.53;;;16.70;99.90;;;;;;4230746;28;20123;-81
2023/07/30 05:57:39;;;;;;;7.55;1.70;;;16.80;99.90;;;;;;4212664;28;20131;-81
2023/07/30 05:59:39;;;;;;;8.02;1.73;;;17.00;99.90;;;;;;4230231;28;20032;-81
2023/07/30 06:01:41;;;;;;;12.85;2.42;;;17.00;99.90;;;;;;4231076;28;20070;-81
2023/07/30 06:03:42;;;;;;;9.60;2.30;;;17.00;99.90;;;;;;4229769;28;20044;-81
2023/07/30 06:05:43;;;;;;;7.07;1.65;;;17.10;99.90;;;;;;4230247;28;20049;-81
2023/07/30 06:07:43;;;;;;;9.55;1.50;;;17.10;99.90;;;;;;4230522;28;20051;-81
2023/07/30 06:09:45;;;;;;;18.00;2.58;;;17.10;99.90;;;;;;4230522;28;20476;-81
2023/07/30 06:11:46;;;;;;;11.38;1.80;;;17.20;99.90;;;;;;4230364;28;20162;-81
2023/07/30 06:13:46;;;;;;;11.23;1.58;;;17.00;99.90;;;;;;4230386;28;20526;-81
2023/07/30 06:15:47;;;;;;;15.52;3.03;;;17.20;99.90;;;;;;4230605;28;20377;-81
2023/07/30 06:17:49;;;;;;;12.80;1.88;;;17.20;99.90;;;;;;4230306;28;20039;-81
2023/07/30 06:19:50;;;;;;;14.90;3.08;;;18.50;99.90;;;;;;4228502;28;20117;-81
2023/07/30 06:21:51;;;;;;;17.00;2.42;;;17.30;99.90;;;;;;4230669;28;20053;-81
2023/07/30 06:23:51;;;;;;;10.45;2.08;;;17.30;99.90;;;;;;4230975;28;20520;-81
2023/07/30 06:25:52;;;;;;;12.20;1.55;;;17.30;99.90;;;;;;4228473;28;20047;-81
2023/07/30 06:27:54;;;;;;;11.95;1.75;;;17.20;99.90;;;;;;4230030;28;20087;-81
2023/07/30 06:29:54;;;;;;;10.13;1.70;;;17.20;99.90;;;;;;4230565;28;20067;-80
2023/07/30 06:31:55;;;;;;;8.77;2.17;;;17.30;99.90;;;;;;4229056;28;20112;-81
2023/07/30 06:33:56;;;;;;;11.75;2.17;;;17.40;99.90;;;;;;4230355;28;20487;-81
2023/07/30 06:35:56;;;;;;;8.55;1.90;;;17.60;99.90;;;;;;4230243;28;20104;-81
2023/07/30 06:37:57;;;;;;;8.55;1.70;;;17.50;99.90;;;;;;4230251;28;20400;-81
2023/07/30 06:39:58;;;;;;;9.50;1.77;;;17.40;99.90;;;;;;4230523;28;20115;-81
2023/07/30 06:41:58;;;;;;;11.77;2.17;;;17.50;99.90;;;;;;4228611;28;20058;-80
2023/07/30 06:44:00;;;;;;;6.97;1.88;;;17.50;99.90;;;;;;4228958;28;20047;-80
2023/07/30 06:46:01;;;;;;;8.52;1.73;;;17.50;99.90;;;;;;4230749;28;20083;-81
2023/07/30 06:48:01;;;;;;;11.48;2.25;;;17.60;99.90;;;;;;4229143;28;20081;-81
2023/07/30 06:50:04;;;;;;;8.60;2.35;;;17.70;99.90;;;;;;4228314;28;20051;-81
2023/07/30 06:52:05;;;;;;;11.77;2.17;;;17.60;99.90;;;;;;4230411;28;20083;-81
2023/07/30 06:54:05;;;;;;;12.00;2.45;;;17.60;99.90;;;;;;4229871;28;20105;-81
2023/07/30 06:56:06;;;;;;;11.57;2.35;;;17.60;99.90;;;;;;4230511;28;20399;-81
2023/07/30 06:58:07;;;;;;;12.07;2.20;;;17.90;99.90;;;;;;4230323;28;20041;-81
2023/07/30 07:00:08;;;;;;;7.00;1.85;;;17.60;99.90;;;;;;4230038;28;20039;-81
2023/07/30 07:02:09;;;;;;;12.90;2.13;;;17.90;99.90;;;;;;4230147;28;20043;-81
2023/07/30 07:04:09;;;;;;;13.60;2.42;;;17.60;99.90;;;;;;4229586;28;20078;-81
2023/07/30 07:06:11;;;;;;;13.10;2.28;;;17.70;99.90;;;;;;4230482;28;20104;-80
2023/07/30 07:08:12;;;;;;;8.55;2.10;;;17.70;99.90;;;;;;4230088;28;20089;-81
2023/07/30 07:10:13;;;;;;;15.20;2.83;;;17.80;99.90;;;;;;4229903;28;20047;-81
2023/07/30 07:12:13;;;;;;;8.90;2.17;;;17.70;99.90;;;;;;4230401;28;20449;-81
2023/07/30 07:14:14;;;;;;;10.02;2.35;;;17.90;99.90;;;;;;4228580;28;20055;-81
2023/07/30 07:16:15;;;;;;;8.18;2.20;;;17.90;99.90;;;;;;4230178;28;20521;-81
2023/07/30 07:18:15;;;;;;;8.13;2.25;;;18.00;99.90;;;;;;4229776;28;20047;-80
2023/07/30 07:20:16;;;;;;;11.32;1.80;;;18.00;99.90;;;;;;4229911;28;20044;-80
2023/07/30 07:22:18;;;;;;;15.13;2.72;;;18.00;99.90;;;;;;4229054;28;20047;-81
2023/07/30 07:24:18;;;;;;;8.95;2.13;;;18.10;99.90;;;;;;4229843;28;20487;-81
2023/07/30 07:26:19;;;;;;;8.70;2.65;;;18.20;99.90;;;;;;4229727;28;20047;-81
2023/07/30 07:28:20;;;;;;;6.68;1.58;;;18.30;99.90;;;;;;4229030;28;20051;-81
2023/07/30 07:30:21;;;;;;;10.70;2.40;;;18.30;99.90;;;;;;4229866;28;20096;-81
2023/07/30 07:32:21;;;;;;;16.25;2.80;;;18.50;99.90;;;;;;4230434;28;20110;-81
2023/07/30 07:34:22;;;;;;;7.05;1.60;;;18.40;99.90;;;;;;4230088;28;20051;-81
2023/07/30 07:36:23;;;;;;;8.70;2.90;;;18.40;99.90;;;;;;4230858;28;20079;-81
2023/07/30 07:38:24;;;;;;;8.13;2.47;;;18.60;99.90;;;;;;4232861;28;20046;-81
2023/07/30 07:40:25;;;;;;;6.63;1.45;;;18.70;99.90;;;;;;4232881;28;20048;-80
2023/07/30 07:42:25;;;;;;;10.98;1.80;;;18.70;99.90;;;;;;4233105;28;20044;-80
2023/07/30 07:44:26;;;;;;;7.90;1.60;;;18.80;99.90;;;;;;4231721;28;20485;-81
2023/07/30 07:46:27;;;;;;;7.70;2.20;;;18.80;99.90;;;;;;4231440;28;20044;-81
2023/07/30 07:48:28;;;;;;;9.02;1.50;;;19.70;99.90;;;;;;4231501;28;20054;-81
2023/07/30 07:50:28;;;;;;;6.15;1.50;;;19.20;99.90;;;;;;4232636;28;20040;-81
2023/07/30 07:52:29;;;;;;;8.75;1.40;;;19.80;99.90;;;;;;4232785;28;20344;-81
2023/07/30 07:54:30;;;;;;;7.50;2.20;;;19.50;99.90;;;;;;4232883;28;20127;-81
2023/07/30 07:56:31;;;;;;;8.45;2.45;;;19.50;99.90;;;;;;4232272;28;20105;-80
2023/07/30 07:58:32;;;;;;;6.65;2.22;;;19.70;99.90;;;;;;4232920;28;20045;-80
2023/07/30 08:00:33;;;;;;;6.55;1.08;;;19.70;99.90;;;;;;4232395;28;20079;-81
2023/07/30 08:02:33;;;;;;;7.93;1.73;;;19.50;99.90;;;;;;4232332;28;20148;-80
2023/07/30 08:04:34;;;;;;;12.43;1.88;;;19.40;99.90;;;;;;4232537;28;20048;-80
2023/07/30 08:06:35;;;;;;;9.18;1.92;;;19.40;99.90;;;;;;4232560;28;20098;-80
2023/07/30 08:08:36;;;;;;;7.47;1.30;;;19.30;99.90;;;;;;4232313;28;20044;-81
2023/07/30 08:10:42;;;;;;;10.15;1.30;;;19.20;99.90;;;;;;4232435;28;20058;-81
2023/07/30 08:12:43;;;;;;;7.82;1.67;;;19.20;99.90;;;;;;4233008;28;20043;-80
2023/07/30 08:14:43;;;;;;;8.60;1.20;;;19.20;99.90;;;;;;4231340;28;20476;-81
2023/07/30 08:16:44;;;;;;;9.63;1.17;;;19.10;99.90;;;;;;4232477;28;20134;-80
2023/07/30 08:18:45;;;;;;;11.43;1.27;;;18.90;99.90;;;;;;4232362;28;20039;-81
2023/07/30 08:20:45;;;;;;;8.35;1.20;;;19.00;99.90;;;;;;4232099;28;20547;-80
2023/07/30 08:22:46;;;;;;;12.30;1.58;;;19.40;99.90;;;;;;4231966;28;20040;-81
2023/07/30 08:24:47;;;;;;;5.70;1.05;;;19.00;99.90;;;;;;4231590;28;20122;-81
2023/07/30 08:26:48;;;;;;;10.45;1.27;;;19.10;99.90;;;;;;4232634;28;20054;-81
2023/07/30 08:28:48;;;;;;;11.68;2.13;;;19.00;99.90;;;;;;4239174;28;20096;-80
2023/07/30 08:30:49;;;;;;;7.10;1.35;;;19.10;99.90;;;;;;4236619;28;20204;-80
2023/07/30 08:32:50;;;;;;;8.60;1.60;;;19.30;99.90;;;;;;4233789;28;20144;-81
2023/07/30 08:34:51;;;;;;;8.90;1.55;;;19.10;99.90;;;;;;4232211;28;20054;-80
2023/07/30 08:36:52;;;;;;;6.30;1.70;;;20.00;99.90;;;;;;4232266;28;20090;-81
2023/07/30 08:38:53;;;;;;;10.65;2.42;;;19.10;99.90;;;;;;4232332;27;20476;-81
2023/07/30 08:40:53;;;;;;;11.57;1.30;;;19.10;99.90;;;;;;4230556;28;20139;-80
2023/07/30 08:42:54;;;;;;;5.30;1.02;;;19.00;99.90;;;;;;4232915;28;20407;-80
2023/07/30 08:44:55;;;;;;;11.20;1.65;;;18.80;99.90;;;;;;4232080;28;20050;-80
2023/07/30 08:46:56;;;;;;;8.38;1.60;;;18.90;99.90;;;;;;4232182;28;20043;-80
2023/07/30 08:48:57;;;;;;;8.40;1.52;;;18.70;99.90;;;;;;4231081;28;20225;-81
2023/07/30 08:50:58;;;;;;;8.23;1.92;;;18.80;99.90;;;;;;4231905;28;20131;-80
2023/07/30 08:53:02;;;;;;;9.32;1.83;;;18.80;99.90;;;;;;4232314;28;20126;-80
2023/07/30 08:55:04;;;;;;;5.13;1.35;;;18.80;99.90;;;;;;4231767;28;20483;-80
2023/07/30 08:57:06;;;;;;;8.50;1.13;;;19.00;99.90;;;;;;4230726;28;20454;-80
2023/07/30 08:59:07;;;;;;;10.07;1.75;;;18.80;99.90;;;;;;4231222;28;20517;-81
2023/07/30 09:01:10;;;;;;;12.40;1.85;;;18.90;99.90;;;;;;4231732;28;20076;-80
2023/07/30 09:03:14;;;;;;;15.38;1.23;;;18.90;99.90;;;;;;4231456;28;20051;-80
2023/07/30 09:05:16;;;;;;;9.95;1.40;;;19.10;99.90;;;;;;4231649;28;20052;-80
2023/07/30 09:07:17;;;;;;;12.82;1.70;;;19.20;99.90;;;;;;4230324;28;20040;-81
2023/07/30 09:09:17;;;;;;;6.97;1.52;;;19.30;99.90;;;;;;4231462;28;20117;-80
2023/07/30 09:11:18;;;;;;;8.65;2.45;;;19.30;99.90;;;;;;4231681;28;20044;-80
2023/07/30 09:13:25;;;;;;;9.20;1.65;;;19.40;99.90;;;;;;4231531;28;20127;-80
2023/07/30 09:15:38;;;;;;;6.57;1.60;;;19.50;99.90;;;;;;4231595;28;20070;-81
2023/07/30 09:17:38;;;;;;;8.13;1.15;;;19.60;99.90;;;;;;4231848;28;20050;-81
2023/07/30 09:19:39;;;;;;;9.75;1.27;;;19.60;99.90;;;;;;4231588;27;20047;-80
2023/07/30 09:21:40;;;;;;;8.10;1.65;;;19.60;99.90;;;;;;4231493;28;20635;-80
2023/07/30 09:23:46;;;;;;;4.72;1.27;;;19.60;99.90;;;;;;4230949;28;20055;-81
2023/07/30 09:25:49;;;;;;;7.90;2.45;;;19.50;99.90;;;;;;4231119;28;20047;-80
2023/07/30 09:27:53;;;;;;;5.88;0.90;;;19.40;99.90;;;;;;4235202;28;20040;-81
2023/07/30 09:29:55;;;;;;;3.90;1.48;;;19.30;99.90;;;;;;4247665;28;20438;-80
2023/07/30 09:31:56;;;;;;;4.15;1.05;;;19.30;99.90;;;;;;4235676;28;20043;-81
2023/07/30 09:33:57;;;;;;;7.85;1.17;;;19.40;99.90;;;;;;4233933;28;20051;-81
2023/07/30 09:35:57;;;;;;;10.98;1.17;;;19.30;99.90;;;;;;4231666;28;20035;-81
2023/07/30 09:38:03;;;;;;;7.03;0.95;;;19.30;99.90;;;;;;4235636;28;20430;-80
2023/07/30 09:40:08;;;;;;;12.10;1.73;;;19.30;99.90;;;;;;4231762;28;20151;-80
2023/07/30 09:42:09;;;;;;;4.53;1.10;;;19.20;99.90;;;;;;4229624;28;20058;-81
2023/07/30 09:44:10;;;;;;;4.80;1.00;;;19.10;99.90;;;;;;4229429;28;20563;-80
2023/07/30 09:46:11;;;;;;;7.25;1.40;;;19.10;99.90;;;;;;4229672;28;20120;-81
2023/07/30 09:48:11;;;;;;;10.52;1.10;;;19.10;99.90;;;;;;4229853;28;20126;-80
2023/07/30 09:50:14;;;;;;;3.65;0.95;;;19.10;99.90;;;;;;4231058;28;20036;-81
2023/07/30 09:52:16;;;;;;;5.82;1.02;;;19.10;99.90;;;;;;4231437;28;20054;-80
2023/07/30 09:54:16;;;;;;;6.82;1.38;;;19.20;99.90;;;;;;4230675;28;20044;-81
2023/07/30 09:56:19;;;;;;;4.22;1.27;;;19.20;99.90;;;;;;4229549;28;20056;-81
2023/07/30 09:58:20;;;;;;;1.90;0.70;;;19.30;99.90;;;;;;4229600;28;20454;-81
2023/07/30 10:00:22;;;;;;;3.63;0.73;;;19.40;99.90;;;;;;4229515;28;20093;-80
2023/07/30 10:02:24;;;;;;;1.42;0.60;;;19.40;99.90;;;;;;4229482;28;20047;-80
2023/07/30 10:04:27;;;;;;;7.15;0.70;;;19.50;99.90;;;;;;4229363;28;20464;-80
2023/07/30 10:06:31;;;;;;;4.38;0.60;;;19.50;99.90;;;;;;4229497;28;20051;-80
2023/07/30 10:08:36;;;;;;;6.10;0.93;;;19.60;99.90;;;;;;4230337;28;20031;-80
2023/07/30 10:10:37;;;;;;;3.53;0.88;;;19.60;99.90;;;;;;4230374;28;20036;-80
2023/07/30 10:12:40;;;;;;;5.10;0.77;;;19.40;99.90;;;;;;4229505;28;20128;-81
2023/07/30 10:14:42;;;;;;;4.53;1.23;;;19.30;99.90;;;;;;4229281;28;20083;-80
2023/07/30 10:16:58;;;;;;;4.65;0.68;;;19.30;99.90;;;;;;4230424;28;20071;-81
2023/07/30 10:18:59;;;;;;;5.30;1.15;;;19.30;99.90;;;;;;4212889;28;20055;-80
2023/07/30 10:21:00;;;;;;;4.60;0.85;;;19.40;99.90;;;;;;4212075;28;20106;-80
2023/07/30 10:23:01;;;;;;;10.13;1.02;;;19.40;99.90;;;;;;4230845;28;20464;-80
2023/07/30 10:25:07;;;;;;;4.40;1.10;;;19.90;99.90;;;;;;4230305;28;20043;-80